sensor_id;sensor_type;location;lat;lon;timestamp;pressure;altitude;pressure_sealevel;temperature
68911;BMP180;55953;51.650;-0.522;2024-02-23T00:00:25;97793.20;;;3.30
68911;BMP180;55953;51.650;-0.522;2024-02-23T00:03:12;97790.40;;;3.30
68911;BMP180;55953;51.650;-0.522;2024-02-23T00:05:40;97781.60;;;3.20
68911;BMP180;55953;51.650;-0.522;2024-02-23T00:08:08;97780.20;;;3.20
68911;BMP180;55953;51.650;-0.522;2024-02-23T00:10:36;97785.00;;;3.20
68911;BMP180;55953;51.650;-0.522;2024-02-23T00:13:04;97792.20;;;3.20
68911;BMP180;55953;51.650;-0.522;2024-02-23T00:15:32;97788.80;;;3.20
68911;BMP180;55953;51.650;-0.522;2024-02-23T00:18:00;97776.60;;;3.20
68911;BMP180;55953;51.650;-0.522;2024-02-23T00:20:31;97780.40;;;3.20
68911;BMP180;55953;51.650;-0.522;2024-02-23T00:22:59;97791.20;;;3.20
68911;BMP180;55953;51.650;-0.522;2024-02-23T00:25:27;97783.80;;;3.20
68911;BMP180;55953;51.650;-0.522;2024-02-23T00:27:55;97787.60;;;3.20
68911;BMP180;55953;51.650;-0.522;2024-02-23T00:30:23;97784.40;;;3.20
68911;BMP180;55953;51.650;-0.522;2024-02-23T00:32:51;97780.80;;;3.20
68911;BMP180;55953;51.650;-0.522;2024-02-23T00:35:19;97771.00;;;3.20
68911;BMP180;55953;51.650;-0.522;2024-02-23T00:37:47;97777.80;;;3.20
68911;BMP180;55953;51.650;-0.522;2024-02-23T00:40:15;97774.60;;;3.20
68911;BMP180;55953;51.650;-0.522;2024-02-23T00:42:43;97777.80;;;3.20
68911;BMP180;55953;51.650;-0.522;2024-02-23T00:45:11;97777.00;;;3.20
68911;BMP180;55953;51.650;-0.522;2024-02-23T00:47:39;97776.80;;;3.20
68911;BMP180;55953;51.650;-0.522;2024-02-23T00:50:08;97769.60;;;3.20
68911;BMP180;55953;51.650;-0.522;2024-02-23T00:52:36;97766.40;;;3.20
68911;BMP180;55953;51.650;-0.522;2024-02-23T00:55:04;97761.60;;;3.20
68911;BMP180;55953;51.650;-0.522;2024-02-23T00:57:32;97756.00;;;3.20
68911;BMP180;55953;51.650;-0.522;2024-02-23T01:00:00;97754.80;;;3.20
68911;BMP180;55953;51.650;-0.522;2024-02-23T01:02:28;97749.40;;;3.16
68911;BMP180;55953;51.650;-0.522;2024-02-23T01:04:57;97741.40;;;3.20
68911;BMP180;55953;51.650;-0.522;2024-02-23T01:07:26;97736.60;;;3.20
68911;BMP180;55953;51.650;-0.522;2024-02-23T01:09:55;97735.60;;;3.20
68911;BMP180;55953;51.650;-0.522;2024-02-23T01:12:24;97730.40;;;3.20
68911;BMP180;55953;51.650;-0.522;2024-02-23T01:14:52;97728.20;;;3.20
68911;BMP180;55953;51.650;-0.522;2024-02-23T01:17:20;97721.80;;;3.20
68911;BMP180;55953;51.650;-0.522;2024-02-23T01:19:49;97724.80;;;3.20
68911;BMP180;55953;51.650;-0.522;2024-02-23T01:22:17;97720.80;;;3.20
68911;BMP180;55953;51.650;-0.522;2024-02-23T01:24:45;97717.00;;;3.20
68911;BMP180;55953;51.650;-0.522;2024-02-23T01:27:13;97723.80;;;3.20
68911;BMP180;55953;51.650;-0.522;2024-02-23T01:29:41;97716.60;;;3.18
68911;BMP180;55953;51.650;-0.522;2024-02-23T01:32:09;97704.40;;;3.12
68911;BMP180;55953;51.650;-0.522;2024-02-23T01:34:37;97696.00;;;3.10
68911;BMP180;55953;51.650;-0.522;2024-02-23T01:37:05;97699.40;;;3.18
68911;BMP180;55953;51.650;-0.522;2024-02-23T01:39:33;97683.60;;;3.20
68911;BMP180;55953;51.650;-0.522;2024-02-23T01:42:00;97681.60;;;3.20
68911;BMP180;55953;51.650;-0.522;2024-02-23T01:44:28;97688.60;;;3.30
68911;BMP180;55953;51.650;-0.522;2024-02-23T01:46:56;97685.40;;;3.40
68911;BMP180;55953;51.650;-0.522;2024-02-23T01:49:25;97679.00;;;3.40
68911;BMP180;55953;51.650;-0.522;2024-02-23T01:51:57;97683.40;;;3.40
68911;BMP180;55953;51.650;-0.522;2024-02-23T01:54:26;97680.00;;;3.50
68911;BMP180;55953;51.650;-0.522;2024-02-23T01:56:57;97683.40;;;3.48
68911;BMP180;55953;51.650;-0.522;2024-02-23T01:59:40;97684.20;;;3.48
68911;BMP180;55953;51.650;-0.522;2024-02-23T02:02:08;97681.40;;;3.50
68911;BMP180;55953;51.650;-0.522;2024-02-23T02:04:36;97684.20;;;3.50
68911;BMP180;55953;51.650;-0.522;2024-02-23T02:07:05;97679.40;;;3.50
68911;BMP180;55953;51.650;-0.522;2024-02-23T02:09:33;97677.80;;;3.40
68911;BMP180;55953;51.650;-0.522;2024-02-23T02:12:01;97680.40;;;3.46
68911;BMP180;55953;51.650;-0.522;2024-02-23T02:14:29;97672.20;;;3.50
68911;BMP180;55953;51.650;-0.522;2024-02-23T02:16:59;97665.60;;;3.50
68911;BMP180;55953;51.650;-0.522;2024-02-23T02:19:27;97667.80;;;3.42
68911;BMP180;55953;51.650;-0.522;2024-02-23T02:21:56;97664.40;;;3.40
68911;BMP180;55953;51.650;-0.522;2024-02-23T02:24:24;97649.80;;;3.40
68911;BMP180;55953;51.650;-0.522;2024-02-23T02:26:52;97650.60;;;3.40
68911;BMP180;55953;51.650;-0.522;2024-02-23T02:29:20;97652.60;;;3.40
68911;BMP180;55953;51.650;-0.522;2024-02-23T02:31:48;97644.80;;;3.40
68911;BMP180;55953;51.650;-0.522;2024-02-23T02:34:16;97635.60;;;3.48
68911;BMP180;55953;51.650;-0.522;2024-02-23T02:36:44;97634.60;;;3.50
68911;BMP180;55953;51.650;-0.522;2024-02-23T02:39:12;97624.80;;;3.50
68911;BMP180;55953;51.650;-0.522;2024-02-23T02:41:40;97614.80;;;3.50
68911;BMP180;55953;51.650;-0.522;2024-02-23T02:44:08;97612.20;;;3.60
68911;BMP180;55953;51.650;-0.522;2024-02-23T02:46:37;97600.40;;;3.60
68911;BMP180;55953;51.650;-0.522;2024-02-23T02:49:05;97597.00;;;3.60
68911;BMP180;55953;51.650;-0.522;2024-02-23T02:51:33;97593.00;;;3.60
68911;BMP180;55953;51.650;-0.522;2024-02-23T02:54:01;97592.60;;;3.70
68911;BMP180;55953;51.650;-0.522;2024-02-23T02:56:29;97582.20;;;3.78
68911;BMP180;55953;51.650;-0.522;2024-02-23T02:58:57;97578.40;;;3.80
68911;BMP180;55953;51.650;-0.522;2024-02-23T03:01:25;97580.40;;;3.80
68911;BMP180;55953;51.650;-0.522;2024-02-23T03:03:52;97575.40;;;3.90
68911;BMP180;55953;51.650;-0.522;2024-02-23T03:06:20;97567.20;;;3.90
68911;BMP180;55953;51.650;-0.522;2024-02-23T03:08:48;97566.40;;;4.00
68911;BMP180;55953;51.650;-0.522;2024-02-23T03:11:16;97559.00;;;4.10
68911;BMP180;55953;51.650;-0.522;2024-02-23T03:13:44;97554.60;;;4.10
68911;BMP180;55953;51.650;-0.522;2024-02-23T03:16:17;97550.20;;;4.20
68911;BMP180;55953;51.650;-0.522;2024-02-23T03:18:45;97537.00;;;4.22
68911;BMP180;55953;51.650;-0.522;2024-02-23T03:21:13;97536.60;;;4.30
68911;BMP180;55953;51.650;-0.522;2024-02-23T03:23:43;97534.80;;;4.38
68911;BMP180;55953;51.650;-0.522;2024-02-23T03:26:10;97534.80;;;4.40
68911;BMP180;55953;51.650;-0.522;2024-02-23T03:28:38;97526.80;;;4.50
68911;BMP180;55953;51.650;-0.522;2024-02-23T03:31:06;97532.00;;;4.50
68911;BMP180;55953;51.650;-0.522;2024-02-23T03:33:34;97530.40;;;4.52
68911;BMP180;55953;51.650;-0.522;2024-02-23T03:36:03;97524.00;;;4.58
68911;BMP180;55953;51.650;-0.522;2024-02-23T03:38:31;97543.20;;;4.60
68911;BMP180;55953;51.650;-0.522;2024-02-23T03:41:02;97539.80;;;4.60
68911;BMP180;55953;51.650;-0.522;2024-02-23T03:43:30;97533.00;;;4.60
68911;BMP180;55953;51.650;-0.522;2024-02-23T03:46:01;97547.60;;;4.60
68911;BMP180;55953;51.650;-0.522;2024-02-23T03:48:29;97542.40;;;4.60
68911;BMP180;55953;51.650;-0.522;2024-02-23T03:50:56;97542.20;;;4.62
68911;BMP180;55953;51.650;-0.522;2024-02-23T03:53:24;97541.00;;;4.70
68911;BMP180;55953;51.650;-0.522;2024-02-23T03:55:52;97544.00;;;4.70
68911;BMP180;55953;51.650;-0.522;2024-02-23T03:58:21;97540.40;;;4.72
68911;BMP180;55953;51.650;-0.522;2024-02-23T04:00:48;97549.00;;;4.80
68911;BMP180;55953;51.650;-0.522;2024-02-23T04:03:16;97556.20;;;4.80
68911;BMP180;55953;51.650;-0.522;2024-02-23T04:05:44;97551.00;;;4.80
68911;BMP180;55953;51.650;-0.522;2024-02-23T04:08:12;97554.20;;;4.82
68911;BMP180;55953;51.650;-0.522;2024-02-23T04:10:40;97557.00;;;4.90
68911;BMP180;55953;51.650;-0.522;2024-02-23T04:13:08;97555.00;;;4.90
68911;BMP180;55953;51.650;-0.522;2024-02-23T04:15:36;97564.20;;;4.90
68911;BMP180;55953;51.650;-0.522;2024-02-23T04:18:05;97564.40;;;5.00
68911;BMP180;55953;51.650;-0.522;2024-02-23T04:20:33;97561.00;;;5.00
68911;BMP180;55953;51.650;-0.522;2024-02-23T04:23:01;97556.60;;;5.00
68911;BMP180;55953;51.650;-0.522;2024-02-23T04:25:29;97555.00;;;4.98
68911;BMP180;55953;51.650;-0.522;2024-02-23T04:27:57;97555.80;;;4.90
68911;BMP180;55953;51.650;-0.522;2024-02-23T04:30:24;97558.20;;;4.90
68911;BMP180;55953;51.650;-0.522;2024-02-23T04:32:52;97549.60;;;4.90
68911;BMP180;55953;51.650;-0.522;2024-02-23T04:35:20;97554.20;;;4.82
68911;BMP180;55953;51.650;-0.522;2024-02-23T04:37:48;97550.60;;;4.80
68911;BMP180;55953;51.650;-0.522;2024-02-23T04:40:18;97553.40;;;4.88
68911;BMP180;55953;51.650;-0.522;2024-02-23T04:42:45;97552.60;;;4.86
68911;BMP180;55953;51.650;-0.522;2024-02-23T04:45:15;97564.80;;;4.90
68911;BMP180;55953;51.650;-0.522;2024-02-23T04:47:43;97576.80;;;4.90
68911;BMP180;55953;51.650;-0.522;2024-02-23T04:50:11;97577.00;;;4.94
68911;BMP180;55953;51.650;-0.522;2024-02-23T04:52:38;97577.40;;;4.98
68911;BMP180;55953;51.650;-0.522;2024-02-23T04:55:07;97590.20;;;5.00
68911;BMP180;55953;51.650;-0.522;2024-02-23T04:57:36;97587.40;;;5.00
68911;BMP180;55953;51.650;-0.522;2024-02-23T05:00:06;97578.80;;;5.00
68911;BMP180;55953;51.650;-0.522;2024-02-23T05:02:35;97581.00;;;5.00
68911;BMP180;55953;51.650;-0.522;2024-02-23T05:05:04;97578.00;;;5.02
68911;BMP180;55953;51.650;-0.522;2024-02-23T05:07:34;97582.20;;;5.00
68911;BMP180;55953;51.650;-0.522;2024-02-23T05:10:02;97579.20;;;5.08
68911;BMP180;55953;51.650;-0.522;2024-02-23T05:12:31;97583.20;;;5.00
68911;BMP180;55953;51.650;-0.522;2024-02-23T05:14:59;97578.40;;;5.00
68911;BMP180;55953;51.650;-0.522;2024-02-23T05:17:27;97578.60;;;5.00
68911;BMP180;55953;51.650;-0.522;2024-02-23T05:19:55;97584.80;;;4.92
68911;BMP180;55953;51.650;-0.522;2024-02-23T05:22:23;97592.40;;;4.90
68911;BMP180;55953;51.650;-0.522;2024-02-23T05:24:51;97596.20;;;4.86
68911;BMP180;55953;51.650;-0.522;2024-02-23T05:27:19;97594.60;;;4.80
68911;BMP180;55953;51.650;-0.522;2024-02-23T05:29:47;97590.60;;;4.70
68911;BMP180;55953;51.650;-0.522;2024-02-23T05:32:15;97591.00;;;4.68
68911;BMP180;55953;51.650;-0.522;2024-02-23T05:34:43;97598.40;;;4.60
68911;BMP180;55953;51.650;-0.522;2024-02-23T05:37:11;97610.80;;;4.50
68911;BMP180;55953;51.650;-0.522;2024-02-23T05:39:39;97606.60;;;4.48
68911;BMP180;55953;51.650;-0.522;2024-02-23T05:42:07;97612.80;;;4.40
68911;BMP180;55953;51.650;-0.522;2024-02-23T05:44:35;97604.80;;;4.30
68911;BMP180;55953;51.650;-0.522;2024-02-23T05:47:03;97605.60;;;4.30
68911;BMP180;55953;51.650;-0.522;2024-02-23T05:49:31;97607.40;;;4.20
68911;BMP180;55953;51.650;-0.522;2024-02-23T05:51:59;97616.20;;;4.20
68911;BMP180;55953;51.650;-0.522;2024-02-23T05:54:27;97617.00;;;4.10
68911;BMP180;55953;51.650;-0.522;2024-02-23T05:56:55;97618.00;;;4.10
68911;BMP180;55953;51.650;-0.522;2024-02-23T05:59:23;97616.40;;;4.10
68911;BMP180;55953;51.650;-0.522;2024-02-23T06:01:51;97619.60;;;4.02
68911;BMP180;55953;51.650;-0.522;2024-02-23T06:04:20;97625.60;;;4.00
68911;BMP180;55953;51.650;-0.522;2024-02-23T06:06:48;97630.60;;;4.00
68911;BMP180;55953;51.650;-0.522;2024-02-23T06:09:16;97634.20;;;4.00
68911;BMP180;55953;51.650;-0.522;2024-02-23T06:11:45;97636.20;;;4.00
68911;BMP180;55953;51.650;-0.522;2024-02-23T06:14:13;97638.00;;;4.10
68911;BMP180;55953;51.650;-0.522;2024-02-23T06:16:41;97642.20;;;4.10
68911;BMP180;55953;51.650;-0.522;2024-02-23T06:19:09;97640.00;;;4.10
68911;BMP180;55953;51.650;-0.522;2024-02-23T06:21:37;97646.00;;;4.10
68911;BMP180;55953;51.650;-0.522;2024-02-23T06:24:05;97651.40;;;4.10
68911;BMP180;55953;51.650;-0.522;2024-02-23T06:26:35;97654.00;;;4.08
68911;BMP180;55953;51.650;-0.522;2024-02-23T06:29:03;97653.80;;;4.10
68911;BMP180;55953;51.650;-0.522;2024-02-23T06:31:33;97650.40;;;4.02
68911;BMP180;55953;51.650;-0.522;2024-02-23T06:34:02;97653.20;;;4.00
68911;BMP180;55953;51.650;-0.522;2024-02-23T06:36:30;97655.00;;;4.00
68911;BMP180;55953;51.650;-0.522;2024-02-23T06:38:58;97655.80;;;4.00
68911;BMP180;55953;51.650;-0.522;2024-02-23T06:41:26;97653.40;;;3.98
68911;BMP180;55953;51.650;-0.522;2024-02-23T06:43:54;97656.80;;;3.90
68911;BMP180;55953;51.650;-0.522;2024-02-23T06:46:22;97657.80;;;3.90
68911;BMP180;55953;51.650;-0.522;2024-02-23T06:48:50;97663.80;;;3.90
68911;BMP180;55953;51.650;-0.522;2024-02-23T06:51:18;97671.60;;;3.80
68911;BMP180;55953;51.650;-0.522;2024-02-23T06:53:48;97669.60;;;3.80
68911;BMP180;55953;51.650;-0.522;2024-02-23T06:56:16;97682.20;;;3.80
68911;BMP180;55953;51.650;-0.522;2024-02-23T06:58:43;97682.20;;;3.80
68911;BMP180;55953;51.650;-0.522;2024-02-23T07:01:11;97685.80;;;3.80
68911;BMP180;55953;51.650;-0.522;2024-02-23T07:03:40;97688.80;;;3.80
68911;BMP180;55953;51.650;-0.522;2024-02-23T07:06:11;97681.20;;;3.74
68911;BMP180;55953;51.650;-0.522;2024-02-23T07:08:39;97683.20;;;3.70
68911;BMP180;55953;51.650;-0.522;2024-02-23T07:11:07;97690.00;;;3.70
68911;BMP180;55953;51.650;-0.522;2024-02-23T07:13:35;97698.00;;;3.70
68911;BMP180;55953;51.650;-0.522;2024-02-23T07:16:03;97697.00;;;3.70
68911;BMP180;55953;51.650;-0.522;2024-02-23T07:18:31;97702.40;;;3.70
68911;BMP180;55953;51.650;-0.522;2024-02-23T07:21:00;97708.40;;;3.70
68911;BMP180;55953;51.650;-0.522;2024-02-23T07:23:29;97705.20;;;3.70
68911;BMP180;55953;51.650;-0.522;2024-02-23T07:25:57;97711.40;;;3.70
68911;BMP180;55953;51.650;-0.522;2024-02-23T07:28:25;97716.40;;;3.70
68911;BMP180;55953;51.650;-0.522;2024-02-23T07:30:53;97707.20;;;3.78
68911;BMP180;55953;51.650;-0.522;2024-02-23T07:33:21;97707.00;;;3.80
68911;BMP180;55953;51.650;-0.522;2024-02-23T07:35:49;97713.60;;;3.80
68911;BMP180;55953;51.650;-0.522;2024-02-23T07:38:17;97714.20;;;3.80
68911;BMP180;55953;51.650;-0.522;2024-02-23T07:40:48;97714.00;;;3.80
68911;BMP180;55953;51.650;-0.522;2024-02-23T07:43:16;97717.20;;;3.80
68911;BMP180;55953;51.650;-0.522;2024-02-23T07:45:44;97719.80;;;3.80
68911;BMP180;55953;51.650;-0.522;2024-02-23T07:48:12;97724.00;;;3.80
68911;BMP180;55953;51.650;-0.522;2024-02-23T07:50:40;97725.40;;;3.80
68911;BMP180;55953;51.650;-0.522;2024-02-23T07:53:08;97724.80;;;3.90
68911;BMP180;55953;51.650;-0.522;2024-02-23T07:55:36;97726.80;;;3.90
68911;BMP180;55953;51.650;-0.522;2024-02-23T07:58:04;97733.00;;;3.90
68911;BMP180;55953;51.650;-0.522;2024-02-23T08:00:32;97733.20;;;3.90
68911;BMP180;55953;51.650;-0.522;2024-02-23T08:03:02;97729.00;;;3.98
68911;BMP180;55953;51.650;-0.522;2024-02-23T08:05:30;97729.20;;;4.00
68911;BMP180;55953;51.650;-0.522;2024-02-23T08:07:59;97738.00;;;4.00
68911;BMP180;55953;51.650;-0.522;2024-02-23T08:10:27;97741.00;;;4.10
68911;BMP180;55953;51.650;-0.522;2024-02-23T08:12:55;97743.60;;;4.10
68911;BMP180;55953;51.650;-0.522;2024-02-23T08:15:23;97753.20;;;4.20
68911;BMP180;55953;51.650;-0.522;2024-02-23T08:17:51;97755.80;;;4.20
68911;BMP180;55953;51.650;-0.522;2024-02-23T08:20:19;97764.00;;;4.24
68911;BMP180;55953;51.650;-0.522;2024-02-23T08:22:47;97764.00;;;4.30
68911;BMP180;55953;51.650;-0.522;2024-02-23T08:25:15;97753.40;;;4.34
68911;BMP180;55953;51.650;-0.522;2024-02-23T08:27:43;97755.60;;;4.40
68911;BMP180;55953;51.650;-0.522;2024-02-23T08:30:13;97763.20;;;4.42
68911;BMP180;55953;51.650;-0.522;2024-02-23T08:32:41;97769.20;;;4.50
68911;BMP180;55953;51.650;-0.522;2024-02-23T08:35:10;97762.40;;;4.50
68911;BMP180;55953;51.650;-0.522;2024-02-23T08:37:38;97764.40;;;4.60
68911;BMP180;55953;51.650;-0.522;2024-02-23T08:40:08;97766.20;;;4.70
68911;BMP180;55953;51.650;-0.522;2024-02-23T08:42:36;97770.60;;;4.78
68911;BMP180;55953;51.650;-0.522;2024-02-23T08:45:05;97771.60;;;4.90
68911;BMP180;55953;51.650;-0.522;2024-02-23T08:47:33;97763.40;;;5.08
68911;BMP180;55953;51.650;-0.522;2024-02-23T08:50:04;97766.80;;;5.28
68911;BMP180;55953;51.650;-0.522;2024-02-23T08:52:32;97765.40;;;5.40
68911;BMP180;55953;51.650;-0.522;2024-02-23T08:55:00;97769.40;;;5.60
68911;BMP180;55953;51.650;-0.522;2024-02-23T08:57:28;97773.80;;;5.84
68911;BMP180;55953;51.650;-0.522;2024-02-23T08:59:56;97777.80;;;6.10
68911;BMP180;55953;51.650;-0.522;2024-02-23T09:02:25;97785.40;;;6.30
68911;BMP180;55953;51.650;-0.522;2024-02-23T09:04:53;97789.20;;;6.50
68911;BMP180;55953;51.650;-0.522;2024-02-23T09:07:21;97793.00;;;6.70
68911;BMP180;55953;51.650;-0.522;2024-02-23T09:09:50;97791.00;;;6.80
68911;BMP180;55953;51.650;-0.522;2024-02-23T09:12:18;97794.00;;;6.88
68911;BMP180;55953;51.650;-0.522;2024-02-23T09:14:46;97797.00;;;7.00
68911;BMP180;55953;51.650;-0.522;2024-02-23T09:17:15;97794.20;;;7.20
68911;BMP180;55953;51.650;-0.522;2024-02-23T09:19:43;97796.20;;;7.40
68911;BMP180;55953;51.650;-0.522;2024-02-23T09:22:11;97794.60;;;7.40
68911;BMP180;55953;51.650;-0.522;2024-02-23T09:24:40;97794.40;;;7.34
68911;BMP180;55953;51.650;-0.522;2024-02-23T09:27:08;97803.80;;;7.26
68911;BMP180;55953;51.650;-0.522;2024-02-23T09:29:37;97809.40;;;7.20
68911;BMP180;55953;51.650;-0.522;2024-02-23T09:32:05;97810.60;;;7.20
68911;BMP180;55953;51.650;-0.522;2024-02-23T09:34:33;97810.60;;;7.34
68911;BMP180;55953;51.650;-0.522;2024-02-23T09:37:02;97810.40;;;7.44
68911;BMP180;55953;51.650;-0.522;2024-02-23T09:39:29;97807.60;;;7.50
68911;BMP180;55953;51.650;-0.522;2024-02-23T09:41:58;97807.00;;;7.60
68911;BMP180;55953;51.650;-0.522;2024-02-23T09:44:32;97801.60;;;7.60
68911;BMP180;55953;51.650;-0.522;2024-02-23T09:47:04;97800.40;;;7.60
68911;BMP180;55953;51.650;-0.522;2024-02-23T09:49:39;97800.80;;;7.60
68911;BMP180;55953;51.650;-0.522;2024-02-23T09:52:10;97801.60;;;7.60
68911;BMP180;55953;51.650;-0.522;2024-02-23T09:54:39;97803.80;;;7.60
68911;BMP180;55953;51.650;-0.522;2024-02-23T09:57:08;97803.00;;;7.70
68911;BMP180;55953;51.650;-0.522;2024-02-23T09:59:37;97800.40;;;7.80
68911;BMP180;55953;51.650;-0.522;2024-02-23T10:02:08;97806.60;;;7.90
68911;BMP180;55953;51.650;-0.522;2024-02-23T10:04:42;97813.80;;;8.00
68911;BMP180;55953;51.650;-0.522;2024-02-23T10:07:16;97814.20;;;8.08
68911;BMP180;55953;51.650;-0.522;2024-02-23T10:09:45;97800.20;;;8.12
68911;BMP180;55953;51.650;-0.522;2024-02-23T10:12:13;97799.00;;;8.30
68911;BMP180;55953;51.650;-0.522;2024-02-23T10:14:41;97797.80;;;8.40
68911;BMP180;55953;51.650;-0.522;2024-02-23T10:17:10;97794.60;;;8.30
68911;BMP180;55953;51.650;-0.522;2024-02-23T10:19:38;97791.00;;;8.34
68911;BMP180;55953;51.650;-0.522;2024-02-23T10:22:06;97791.60;;;8.50
68911;BMP180;55953;51.650;-0.522;2024-02-23T10:24:36;97792.80;;;8.54
68911;BMP180;55953;51.650;-0.522;2024-02-23T10:27:05;97794.80;;;8.70
68911;BMP180;55953;51.650;-0.522;2024-02-23T10:29:32;97803.60;;;8.80
68911;BMP180;55953;51.650;-0.522;2024-02-23T10:32:01;97801.80;;;8.90
68911;BMP180;55953;51.650;-0.522;2024-02-23T10:34:30;97807.20;;;8.92
68911;BMP180;55953;51.650;-0.522;2024-02-23T10:36:59;97804.20;;;9.00
68911;BMP180;55953;51.650;-0.522;2024-02-23T10:39:29;97805.80;;;9.10
68911;BMP180;55953;51.650;-0.522;2024-02-23T10:42:02;97802.80;;;9.20
68911;BMP180;55953;51.650;-0.522;2024-02-23T10:44:31;97803.20;;;9.30
68911;BMP180;55953;51.650;-0.522;2024-02-23T10:47:01;97802.00;;;9.30
68911;BMP180;55953;51.650;-0.522;2024-02-23T10:49:30;97796.20;;;9.40
68911;BMP180;55953;51.650;-0.522;2024-02-23T10:51:59;97806.60;;;9.50
68911;BMP180;55953;51.650;-0.522;2024-02-23T10:54:29;97803.40;;;9.60
68911;BMP180;55953;51.650;-0.522;2024-02-23T10:56:59;97801.80;;;9.60
68911;BMP180;55953;51.650;-0.522;2024-02-23T10:59:27;97802.80;;;9.70
68911;BMP180;55953;51.650;-0.522;2024-02-23T11:01:57;97806.20;;;9.86
68911;BMP180;55953;51.650;-0.522;2024-02-23T11:04:28;97805.00;;;9.90
68911;BMP180;55953;51.650;-0.522;2024-02-23T11:06:57;97809.20;;;10.00
68911;BMP180;55953;51.650;-0.522;2024-02-23T11:09:27;97805.00;;;10.00
68911;BMP180;55953;51.650;-0.522;2024-02-23T11:11:57;97803.20;;;10.10
68911;BMP180;55953;51.650;-0.522;2024-02-23T11:14:36;97803.00;;;10.22
68911;BMP180;55953;51.650;-0.522;2024-02-23T11:17:05;97803.00;;;10.30
68911;BMP180;55953;51.650;-0.522;2024-02-23T11:19:35;97796.80;;;10.40
68911;BMP180;55953;51.650;-0.522;2024-02-23T11:22:05;97785.20;;;10.40
68911;BMP180;55953;51.650;-0.522;2024-02-23T11:24:49;97787.80;;;10.30
68911;BMP180;55953;51.650;-0.522;2024-02-23T11:27:24;97790.00;;;10.20
68911;BMP180;55953;51.650;-0.522;2024-02-23T11:30:08;97790.40;;;10.10
68911;BMP180;55953;51.650;-0.522;2024-02-23T11:32:39;97787.20;;;10.10
68911;BMP180;55953;51.650;-0.522;2024-02-23T11:35:11;97791.00;;;10.10
68911;BMP180;55953;51.650;-0.522;2024-02-23T11:37:47;97797.00;;;10.00
68911;BMP180;55953;51.650;-0.522;2024-02-23T11:40:17;97794.80;;;9.90
68911;BMP180;55953;51.650;-0.522;2024-02-23T11:42:46;97795.20;;;9.90
68911;BMP180;55953;51.650;-0.522;2024-02-23T11:45:15;97790.60;;;9.80
68911;BMP180;55953;51.650;-0.522;2024-02-23T11:47:43;97799.60;;;9.80
68911;BMP180;55953;51.650;-0.522;2024-02-23T11:50:11;97805.00;;;9.80
68911;BMP180;55953;51.650;-0.522;2024-02-23T11:52:40;97803.40;;;9.80
68911;BMP180;55953;51.650;-0.522;2024-02-23T11:55:08;97805.40;;;9.80
68911;BMP180;55953;51.650;-0.522;2024-02-23T11:57:38;97802.80;;;9.70
68911;BMP180;55953;51.650;-0.522;2024-02-23T12:00:15;97802.80;;;9.68
68911;BMP180;55953;51.650;-0.522;2024-02-23T12:02:44;97804.60;;;9.60
68911;BMP180;55953;51.650;-0.522;2024-02-23T12:05:17;97796.20;;;9.70
68911;BMP180;55953;51.650;-0.522;2024-02-23T12:07:45;97796.80;;;9.82
68911;BMP180;55953;51.650;-0.522;2024-02-23T12:10:15;97789.80;;;10.00
68911;BMP180;55953;51.650;-0.522;2024-02-23T12:12:43;97798.60;;;10.26
68911;BMP180;55953;51.650;-0.522;2024-02-23T12:15:11;97791.00;;;10.40
68911;BMP180;55953;51.650;-0.522;2024-02-23T12:17:49;97784.60;;;10.50
68911;BMP180;55953;51.650;-0.522;2024-02-23T12:20:17;97791.40;;;10.60
68911;BMP180;55953;51.650;-0.522;2024-02-23T12:22:47;97790.40;;;10.60
68911;BMP180;55953;51.650;-0.522;2024-02-23T12:25:15;97789.60;;;10.48
68911;BMP180;55953;51.650;-0.522;2024-02-23T12:27:43;97790.20;;;10.30
68911;BMP180;55953;51.650;-0.522;2024-02-23T12:30:15;97800.20;;;10.22
68911;BMP180;55953;51.650;-0.522;2024-02-23T12:32:44;97796.20;;;10.40
68911;BMP180;55953;51.650;-0.522;2024-02-23T12:35:12;97798.00;;;10.50
68911;BMP180;55953;51.650;-0.522;2024-02-23T12:37:40;97800.60;;;10.50
68911;BMP180;55953;51.650;-0.522;2024-02-23T12:40:12;97795.80;;;10.50
68911;BMP180;55953;51.650;-0.522;2024-02-23T12:42:40;97790.20;;;10.50
68911;BMP180;55953;51.650;-0.522;2024-02-23T12:45:08;97792.00;;;10.52
68911;BMP180;55953;51.650;-0.522;2024-02-23T12:47:36;97793.00;;;10.60
68911;BMP180;55953;51.650;-0.522;2024-02-23T12:50:06;97789.80;;;10.64
68911;BMP180;55953;51.650;-0.522;2024-02-23T12:52:35;97788.20;;;10.80
68911;BMP180;55953;51.650;-0.522;2024-02-23T12:55:04;97788.20;;;10.80
68911;BMP180;55953;51.650;-0.522;2024-02-23T12:57:32;97787.40;;;10.64
68911;BMP180;55953;51.650;-0.522;2024-02-23T13:00:00;97786.00;;;10.60
68911;BMP180;55953;51.650;-0.522;2024-02-23T13:02:28;97783.00;;;10.58
68911;BMP180;55953;51.650;-0.522;2024-02-23T13:04:56;97782.00;;;10.60
68911;BMP180;55953;51.650;-0.522;2024-02-23T13:07:24;97777.80;;;10.70
68911;BMP180;55953;51.650;-0.522;2024-02-23T13:09:54;97776.20;;;10.94
68911;BMP180;55953;51.650;-0.522;2024-02-23T13:12:22;97778.40;;;11.08
68911;BMP180;55953;51.650;-0.522;2024-02-23T13:14:52;97775.60;;;11.10
68911;BMP180;55953;51.650;-0.522;2024-02-23T13:17:19;97774.20;;;11.08
68911;BMP180;55953;51.650;-0.522;2024-02-23T13:19:48;97777.60;;;11.00
68911;BMP180;55953;51.650;-0.522;2024-02-23T13:22:32;97777.00;;;10.90
68911;BMP180;55953;51.650;-0.522;2024-02-23T13:25:00;97775.00;;;10.70
68911;BMP180;55953;51.650;-0.522;2024-02-23T13:27:28;97773.20;;;10.50
68911;BMP180;55953;51.650;-0.522;2024-02-23T13:29:57;97789.20;;;10.30
68911;BMP180;55953;51.650;-0.522;2024-02-23T13:32:25;97793.80;;;9.88
68911;BMP180;55953;51.650;-0.522;2024-02-23T13:34:53;97802.80;;;9.44
68911;BMP180;55953;51.650;-0.522;2024-02-23T13:37:21;97804.60;;;9.10
68911;BMP180;55953;51.650;-0.522;2024-02-23T13:39:49;97817.80;;;8.86
68911;BMP180;55953;51.650;-0.522;2024-02-23T13:42:17;97814.80;;;8.60
68911;BMP180;55953;51.650;-0.522;2024-02-23T13:44:45;97809.60;;;8.44
68911;BMP180;55953;51.650;-0.522;2024-02-23T13:47:14;97805.20;;;8.40
68911;BMP180;55953;51.650;-0.522;2024-02-23T13:49:42;97803.60;;;8.40
68911;BMP180;55953;51.650;-0.522;2024-02-23T13:52:10;97798.40;;;8.30
68911;BMP180;55953;51.650;-0.522;2024-02-23T13:54:38;97798.00;;;8.28
68911;BMP180;55953;51.650;-0.522;2024-02-23T13:57:06;97795.40;;;8.20
68911;BMP180;55953;51.650;-0.522;2024-02-23T13:59:34;97792.40;;;8.26
68911;BMP180;55953;51.650;-0.522;2024-02-23T14:02:02;97794.60;;;8.40
68911;BMP180;55953;51.650;-0.522;2024-02-23T14:04:30;97793.20;;;8.60
68911;BMP180;55953;51.650;-0.522;2024-02-23T14:06:59;97791.20;;;8.80
68911;BMP180;55953;51.650;-0.522;2024-02-23T14:09:27;97789.40;;;8.98
68911;BMP180;55953;51.650;-0.522;2024-02-23T14:11:55;97795.20;;;9.10
68911;BMP180;55953;51.650;-0.522;2024-02-23T14:14:23;97795.80;;;9.12